sensor_id;sensor_type;location;lat;lon;timestamp;temperature;humidity
18268;DHT22;9260;49.998;19.880;2023-01-28T00:00:27;-1.80;99.90
18268;DHT22;9260;49.998;19.880;2023-01-28T00:10:32;-1.80;99.90
18268;DHT22;9260;49.998;19.880;2023-01-28T00:20:36;-1.80;99.90
18268;DHT22;9260;49.998;19.880;2023-01-28T00:30:41;-1.80;99.90
18268;DHT22;9260;49.998;19.880;2023-01-28T00:40:44;-1.90;99.90
18268;DHT22;9260;49.998;19.880;2023-01-28T00:50:49;-1.80;99.90
18268;DHT22;9260;49.998;19.880;2023-01-28T01:00:54;-1.80;99.90
18268;DHT22;9260;49.998;19.880;2023-01-28T01:10:59;-1.90;99.90
18268;DHT22;9260;49.998;19.880;2023-01-28T01:21:07;-1.90;99.90
18268;DHT22;9260;49.998;19.880;2023-01-28T01:31:15;-1.90;99.90
18268;DHT22;9260;49.998;19.880;2023-01-28T01:41:25;-1.90;99.90
18268;DHT22;9260;49.998;19.880;2023-01-28T01:51:33;-1.80;99.90
18268;DHT22;9260;49.998;19.880;2023-01-28T02:01:39;-1.80;99.90
18268;DHT22;9260;49.998;19.880;2023-01-28T02:11:44;-1.80;99.90
18268;DHT22;9260;49.998;19.880;2023-01-28T02:22:02;-1.80;99.90
18268;DHT22;9260;49.998;19.880;2023-01-28T02:32:16;-1.90;99.90
18268;DHT22;9260;49.998;19.880;2023-01-28T02:42:28;-1.90;99.90
18268;DHT22;9260;49.998;19.880;2023-01-28T02:52:44;-1.90;99.90
18268;DHT22;9260;49.998;19.880;2023-01-28T03:03:15;-1.90;99.90
18268;DHT22;9260;49.998;19.880;2023-01-28T03:13:22;-1.90;99.90
18268;DHT22;9260;49.998;19.880;2023-01-28T03:23:49;-1.90;99.90
18268;DHT22;9260;49.998;19.880;2023-01-28T03:34:15;-1.90;99.90
18268;DHT22;9260;49.998;19.880;2023-01-28T03:44:36;-1.90;99.90
18268;DHT22;9260;49.998;19.880;2023-01-28T03:54:55;-1.90;99.90
18268;DHT22;9260;49.998;19.880;2023-01-28T04:04:59;-1.90;99.90
18268;DHT22;9260;49.998;19.880;2023-01-28T04:15:11;-1.90;99.90
18268;DHT22;9260;49.998;19.880;2023-01-28T04:25:19;-1.90;99.90
18268;DHT22;9260;49.998;19.880;2023-01-28T04:35:25;-1.90;99.90
18268;DHT22;9260;49.998;19.880;2023-01-28T04:45:44;-2.00;99.90
18268;DHT22;9260;49.998;19.880;2023-01-28T04:56:05;-2.00;99.90
18268;DHT22;9260;49.998;19.880;2023-01-28T05:06:10;-2.00;99.90
18268;DHT22;9260;49.998;19.880;2023-01-28T05:16:20;-2.00;99.90
18268;DHT22;9260;49.998;19.880;2023-01-28T05:26:24;-1.90;99.90
18268;DHT22;9260;49.998;19.880;2023-01-28T05:36:29;-1.90;99.90
18268;DHT22;9260;49.998;19.880;2023-01-28T05:46:39;-1.90;99.90
18268;DHT22;9260;49.998;19.880;2023-01-28T05:57:06;-2.00;99.90
18268;DHT22;9260;49.998;19.880;2023-01-28T06:07:09;-2.00;99.90
18268;DHT22;9260;49.998;19.880;2023-01-28T06:17:18;-2.00;99.90
18268;DHT22;9260;49.998;19.880;2023-01-28T06:27:35;-2.00;99.90
18268;DHT22;9260;49.998;19.880;2023-01-28T06:37:40;-2.00;99.90
18268;DHT22;9260;49.998;19.880;2023-01-28T06:47:44;-1.90;99.90
18268;DHT22;9260;49.998;19.880;2023-01-28T06:57:49;-1.90;99.90
18268;DHT22;9260;49.998;19.880;2023-01-28T07:07:52;-1.80;99.90
18268;DHT22;9260;49.998;19.880;2023-01-28T07:17:57;-1.70;99.90
18268;DHT22;9260;49.998;19.880;2023-01-28T07:28:00;-1.60;99.90
18268;DHT22;9260;49.998;19.880;2023-01-28T07:38:05;-1.60;99.90
18268;DHT22;9260;49.998;19.880;2023-01-28T07:48:11;-1.40;99.90
18268;DHT22;9260;49.998;19.880;2023-01-28T07:58:16;-1.20;99.90
18268;DHT22;9260;49.998;19.880;2023-01-28T08:08:20;-1.10;99.90
18268;DHT22;9260;49.998;19.880;2023-01-28T08:18:25;-1.10;99.90
18268;DHT22;9260;49.998;19.880;2023-01-28T08:28:29;-1.10;99.90
18268;DHT22;9260;49.998;19.880;2023-01-28T08:38:34;-1.10;99.90
18268;DHT22;9260;49.998;19.880;2023-01-28T08:48:37;-1.10;99.90
18268;DHT22;9260;49.998;19.880;2023-01-28T08:58:42;-1.00;99.90
18268;DHT22;9260;49.998;19.880;2023-01-28T09:08:46;-0.90;99.90
18268;DHT22;9260;49.998;19.880;2023-01-28T09:18:51;-0.90;99.90
18268;DHT22;9260;49.998;19.880;2023-01-28T09:28:55;-0.80;99.90
18268;DHT22;9260;49.998;19.880;2023-01-28T09:38:59;-0.60;99.90
18268;DHT22;9260;49.998;19.880;2023-01-28T09:49:10;-0.50;99.90
18268;DHT22;9260;49.998;19.880;2023-01-28T09:59:22;-0.40;99.90
18268;DHT22;9260;49.998;19.880;2023-01-28T10:09:36;-0.40;99.90
18268;DHT22;9260;49.998;19.880;2023-01-28T10:19:48;-0.30;99.90
18268;DHT22;9260;49.998;19.880;2023-01-28T10:29:54;-0.10;99.90
18268;DHT22;9260;49.998;19.880;2023-01-28T10:39:59;-0.20;99.90
18268;DHT22;9260;49.998;19.880;2023-01-28T10:50:05;0.00;99.90
18268;DHT22;9260;49.998;19.880;2023-01-28T11:00:25;0.30;99.90
18268;DHT22;9260;49.998;19.880;2023-01-28T11:10:33;0.20;99.90
18268;DHT22;9260;49.998;19.880;2023-01-28T11:20:41;-0.10;99.90
18268;DHT22;9260;49.998;19.880;2023-01-28T11:30:52;-0.50;99.90
18268;DHT22;9260;49.998;19.880;2023-01-28T11:40:59;-0.50;99.90
18268;DHT22;9260;49.998;19.880;2023-01-28T11:51:21;-0.30;99.90
18268;DHT22;9260;49.998;19.880;2023-01-28T12:01:40;-0.30;99.90
18268;DHT22;9260;49.998;19.880;2023-01-28T12:12:02;-0.40;99.90
18268;DHT22;9260;49.998;19.880;2023-01-28T12:22:28;-0.50;99.90
18268;DHT22;9260;49.998;19.880;2023-01-28T12:32:49;-0.50;99.90
18268;DHT22;9260;49.998;19.880;2023-01-28T12:43:04;-0.50;99.90
18268;DHT22;9260;49.998;19.880;2023-01-28T12:53:19;-0.60;99.90
18268;DHT22;9260;49.998;19.880;2023-01-28T13:03:32;-0.70;99.90
18268;DHT22;9260;49.998;19.880;2023-01-28T13:13:39;-0.70;99.90
18268;DHT22;9260;49.998;19.880;2023-01-28T13:23:46;-0.70;99.90
18268;DHT22;9260;49.998;19.880;2023-01-28T13:34:01;-0.50;99.90
18268;DHT22;9260;49.998;19.880;2023-01-28T13:44:18;-0.40;99.90
18268;DHT22;9260;49.998;19.880;2023-01-28T13:54:24;-0.40;99.90
18268;DHT22;9260;49.998;19.880;2023-01-28T14:15:54;-0.50;99.90
18268;DHT22;9260;49.998;19.880;2023-01-28T14:26:15;-0.60;99.90
18268;DHT22;9260;49.998;19.880;2023-01-28T14:36:24;-0.60;99.90
18268;DHT22;9260;49.998;19.880;2023-01-28T14:46:37;-0.50;99.90
18268;DHT22;9260;49.998;19.880;2023-01-28T14:56:54;-0.80;99.90
18268;DHT22;9260;49.998;19.880;2023-01-28T15:07:17;-0.90;99.90
18268;DHT22;9260;49.998;19.880;2023-01-28T15:17:25;-0.90;99.90
18268;DHT22;9260;49.998;19.880;2023-01-28T15:27:31;-1.00;99.90
18268;DHT22;9260;49.998;19.880;2023-01-28T15:37:34;-1.00;99.90
18268;DHT22;9260;49.998;19.880;2023-01-28T15:47:40;-1.10;99.90
18268;DHT22;9260;49.998;19.880;2023-01-28T15:57:44;-1.10;99.90
18268;DHT22;9260;49.998;19.880;2023-01-28T16:07:49;-1.10;99.90
18268;DHT22;9260;49.998;19.880;2023-01-28T16:17:53;-1.20;99.90
18268;DHT22;9260;49.998;19.880;2023-01-28T16:27:59;-1.00;99.90
18268;DHT22;9260;49.998;19.880;2023-01-28T16:38:05;-1.10;99.90
18268;DHT22;9260;49.998;19.880;2023-01-28T16:48:13;-1.20;99.90
18268;DHT22;9260;49.998;19.880;2023-01-28T16:58:20;-1.20;99.90
18268;DHT22;9260;49.998;19.880;2023-01-28T17:08:26;-1.20;99.90
18268;DHT22;9260;49.998;19.880;2023-01-28T17:18:30;-1.20;99.90
18268;DHT22;9260;49.998;19.880;2023-01-28T17:28:36;-1.20;99.90
18268;DHT22;9260;49.998;19.880;2023-01-28T17:38:43;-1.20;99.90
18268;DHT22;9260;49.998;19.880;2023-01-28T17:48:48;-1.20;99.90
18268;DHT22;9260;49.998;19.880;2023-01-28T17:58:54;-1.20;99.90
18268;DHT22;9260;49.998;19.880;2023-01-28T18:09:00;-1.20;99.90
18268;DHT22;9260;49.998;19.880;2023-01-28T18:19:03;-1.40;99.90
18268;DHT22;9260;49.998;19.880;2023-01-28T18:29:11;-1.30;99.90
18268;DHT22;9260;49.998;19.880;2023-01-28T18:39:19;-1.30;99.90
18268;DHT22;9260;49.998;19.880;2023-01-28T18:49:24;-1.40;99.90
18268;DHT22;9260;49.998;19.880;2023-01-28T18:59:29;-1.50;99.90
18268;DHT22;9260;49.998;19.880;2023-01-28T19:09:39;-1.40;99.90
18268;DHT22;9260;49.998;19.880;2023-01-28T19:19:42;-1.50;99.90
18268;DHT22;9260;49.998;19.880;2023-01-28T19:29:48;-1.50;99.90
18268;DHT22;9260;49.998;19.880;2023-01-28T19:39:51;-1.50;99.90
18268;DHT22;9260;49.998;19.880;2023-01-28T19:49:57;-1.50;99.90
18268;DHT22;9260;49.998;19.880;2023-01-28T20:00:02;-1.60;99.90
18268;DHT22;9260;49.998;19.880;2023-01-28T20:10:08;-1.60;99.90
18268;DHT22;9260;49.998;19.880;2023-01-28T20:20:13;-1.60;99.90
18268;DHT22;9260;49.998;19.880;2023-01-28T20:30:18;-1.50;99.90
18268;DHT22;9260;49.998;19.880;2023-01-28T20:40:21;-1.50;99.90
18268;DHT22;9260;49.998;19.880;2023-01-28T20:50:26;-1.60;99.90
18268;DHT22;9260;49.998;19.880;2023-01-28T21:00:30;-1.50;99.90
18268;DHT22;9260;49.998;19.880;2023-01-28T21:10:36;-1.50;99.90
18268;DHT22;9260;49.998;19.880;2023-01-28T21:20:41;-1.50;99.90
18268;DHT22;9260;49.998;19.880;2023-01-28T21:30:47;-1.50;99.90
18268;DHT22;9260;49.998;19.880;2023-01-28T21:40:56;-1.50;99.90
18268;DHT22;9260;49.998;19.880;2023-01-28T21:51:06;-1.20;99.90
18268;DHT22;9260;49.998;19.880;2023-01-28T22:01:28;-1.50;99.90
18268;DHT22;9260;49.998;19.880;2023-01-28T22:11:33;-1.40;99.90
18268;DHT22;9260;49.998;19.880;2023-01-28T22:21:37;-1.40;99.90
18268;DHT22;9260;49.998;19.880;2023-01-28T22:31:45;-1.40;99.90
18268;DHT22;9260;49.998;19.880;2023-01-28T22:41:50;-1.30;99.90
18268;DHT22;9260;49.998;19.880;2023-01-28T22:51:56;-1.40;99.90
18268;DHT22;9260;49.998;19.880;2023-01-28T23:01:59;-1.40;99.90
18268;DHT22;9260;49.998;19.880;2023-01-28T23:12:05;-1.40;99.90
18268;DHT22;9260;49.998;19.880;2023-01-28T23:22:12;-1.40;99.90
18268;DHT22;9260;49.998;19.880;2023-01-28T23:32:35;-1.40;99.90
18268;DHT22;9260;49.998;19.880;2023-01-28T23:42:41;-1.40;99.90
18268;DHT22;9260;49.998;19.880;2023-01-28T23:52:47;-1.50;99.90
